»·PEaware :: N856CM KSBA-KBUR

N856CM :: KSBA-KBUR

FLIGHT INFORMATION

Flight Status: Arrived
Operator: Privately registered:
United States
More flights under this callsign
Pilot: Jimmy M. (17685)
Aircraft: CESSNA 172 SKYHAWK
(C172)
More flights by this aircraft type
Origin: KSBA Santa Barbara Mun
United States
Destination: KBUR Bob Hope-Burbank
United States
More flights between these airports :: More routes between these airports
Route: KWANG CMA TOAKS
File this flight plan on PilotEdge
Remarks: CAT 8
Altitude:
(Current/Filed)
5,500ft
Speed:
(Current/Filed)
115kts
Departed: 30-Dec-17 09:39 PM
Arrived: 30-Dec-17 10:53 PM
Distance/Time
Traveled:
74nm/1:13
Distance/Time
To Go:
Arrived

Flight Plot

Page will automatically refresh every two minutes.


Map Options




Map Legend


Flown Route
Filed Route
Departure Airport
Arrival Airport
Navaid (VOR, NDB)
Fix

Horizontal Profiles

Position Reports

Time Latitude Longitude Heading Altitude Ground
Speed
30-Dec-17 21:29 34.422664 -119.835593 340 10ft 0kts
30-Dec-17 21:30 34.422664 -119.835593 340 10ft 0kts
30-Dec-17 21:31 34.422664 -119.835593 340 10ft 0kts
30-Dec-17 21:32 34.422664 -119.835593 340 10ft 0kts
30-Dec-17 21:33 34.422664 -119.835593 340 10ft 0kts
30-Dec-17 21:34 34.422664 -119.835593 340 10ft 0kts
30-Dec-17 21:35 34.422664 -119.835593 340 10ft 0kts
30-Dec-17 21:36 34.422664 -119.835593 340 10ft 0kts
30-Dec-17 21:37 34.422664 -119.835593 340 10ft 0kts
30-Dec-17 21:38 34.422664 -119.835593 340 10ft 0kts
30-Dec-17 21:39 34.422778 -119.836747 241 12ft 5kts
30-Dec-17 21:40 34.426446 -119.838251 10 11ft 12kts
30-Dec-17 21:41 34.426764 -119.835015 88 10ft 13kts
30-Dec-17 21:42 34.427139 -119.834611 358 10ft 0kts
30-Dec-17 21:43 34.427139 -119.834611 358 10ft 0kts
30-Dec-17 21:44 34.427139 -119.834611 358 10ft 0kts
30-Dec-17 21:45 34.427440 -119.845908 266 157ft 92kts
30-Dec-17 21:46 34.427379 -119.881585 269 765ft 111kts
30-Dec-17 21:47 34.427436 -119.910454 269 1244ft 93kts
30-Dec-17 21:48 34.422664 -119.835593 340 10ft 0kts
30-Dec-17 21:49 34.422664 -119.835593 340 10ft 0kts
30-Dec-17 21:50 34.422664 -119.835593 340 10ft 0kts
30-Dec-17 21:51 34.422664 -119.835593 340 10ft 0kts
30-Dec-17 21:52 34.422664 -119.835593 340 10ft 0kts
30-Dec-17 21:53 34.422664 -119.835593 340 10ft 0kts
30-Dec-17 21:54 34.422664 -119.835593 340 10ft 0kts
30-Dec-17 21:55 34.422664 -119.835593 340 10ft 0kts
30-Dec-17 21:56 34.422685 -119.836880 271 12ft 11kts
30-Dec-17 21:57 34.426601 -119.838135 48 10ft 14kts
30-Dec-17 21:58 34.427093 -119.834617 353 10ft 0kts
30-Dec-17 21:59 34.427093 -119.834617 353 10ft 0kts
30-Dec-17 22:00 34.427864 -119.835214 277 10ft 19kts
30-Dec-17 22:01 34.425513 -119.861513 261 552ft 103kts
30-Dec-17 22:02 34.422302 -119.891397 262 1136ft 110kts
30-Dec-17 22:03 34.398643 -119.901455 119 2170ft 96kts
30-Dec-17 22:04 34.398022 -119.889300 81 2565ft 92kts
30-Dec-17 22:05 34.422664 -119.835593 340 10ft 0kts
30-Dec-17 22:06 34.422664 -119.835593 340 10ft 0kts
30-Dec-17 22:07 34.422664 -119.835593 340 10ft 0kts
30-Dec-17 22:08 34.422664 -119.835593 340 10ft 0kts
30-Dec-17 22:09 34.422664 -119.835593 340 10ft 0kts
30-Dec-17 22:10 34.422664 -119.835593 340 10ft 0kts
30-Dec-17 22:11 34.424783 -119.837770 345 13ft 17kts
30-Dec-17 22:12 34.426752 -119.835393 88 10ft 20kts
30-Dec-17 22:13 34.427084 -119.834613 356 10ft 0kts
30-Dec-17 22:14 34.427882 -119.836387 268 10ft 38kts
30-Dec-17 22:15 34.424893 -119.865017 260 685ft 102kts
30-Dec-17 22:16 34.420299 -119.901078 260 1353ft 113kts
30-Dec-17 22:17 34.415776 -119.936299 260 2213ft 101kts
30-Dec-17 22:18 34.393491 -119.941773 132 3113ft 96kts
30-Dec-17 22:19 34.392281 -119.912074 89 4093ft 86kts
30-Dec-17 22:20 34.391811 -119.884721 88 5031ft 81kts
30-Dec-17 22:21 34.391232 -119.853919 89 5512ft 112kts
30-Dec-17 22:22 34.382156 -119.816314 105 5507ft 116kts
30-Dec-17 22:23 34.372063 -119.780453 105 5498ft 111kts
30-Dec-17 22:24 34.362450 -119.744802 102 5498ft 113kts
30-Dec-17 22:25 34.353717 -119.707716 102 5498ft 114kts
30-Dec-17 22:26 34.345054 -119.670502 102 5499ft 115kts
30-Dec-17 22:27 34.336425 -119.632888 102 5500ft 120kts
30-Dec-17 22:28 34.327500 -119.592998 102 5501ft 123kts
30-Dec-17 22:29 34.318547 -119.551978 101 5502ft 131kts
30-Dec-17 22:30 34.308473 -119.509215 103 5503ft 130kts
30-Dec-17 22:31 34.299118 -119.467313 102 5504ft 128kts
30-Dec-17 22:32 34.290093 -119.426111 102 5504ft 126kts
30-Dec-17 22:33 34.281374 -119.385699 102 5488ft 122kts
30-Dec-17 22:34 34.272749 -119.347202 104 5488ft 121kts
30-Dec-17 22:35 34.264177 -119.309032 103 5488ft 121kts
30-Dec-17 22:36 34.255483 -119.269883 103 5488ft 120kts
30-Dec-17 22:37 34.246868 -119.230698 103 5488ft 121kts
30-Dec-17 22:38 34.238040 -119.190853 105 5488ft 124kts
30-Dec-17 22:39 34.228481 -119.151839 105 5489ft 125kts
30-Dec-17 22:40 34.218621 -119.111561 105 5490ft 125kts
30-Dec-17 22:41 34.210476 -119.071072 90 5519ft 123kts
30-Dec-17 22:42 34.209163 -119.029237 90 5520ft 125kts
30-Dec-17 22:43 34.207893 -118.987229 90 5520ft 125kts
30-Dec-17 22:44 34.206683 -118.945296 89 5520ft 125kts
30-Dec-17 22:45 34.205534 -118.903305 89 5521ft 125kts
30-Dec-17 22:46 34.204446 -118.861222 89 5511ft 126kts
30-Dec-17 22:47 34.203416 -118.818939 89 5503ft 125kts
30-Dec-17 22:48 34.202432 -118.776481 89 5258ft 129kts
30-Dec-17 22:49 34.202444 -118.733100 87 4761ft 128kts
30-Dec-17 22:50 34.202761 -118.691366 87 4511ft 115kts
30-Dec-17 22:51 34.203178 -118.652336 87 4512ft 116kts
30-Dec-17 22:52 34.203023 -118.612744 91 4303ft 123kts
30-Dec-17 22:53 34.201537 -118.571010 91 3806ft 124kts
30-Dec-17 22:54 34.201410 -118.530197 88 3509ft 113kts
30-Dec-17 22:55 34.201452 -118.494353 88 3525ft 103kts
30-Dec-17 22:56 34.201544 -118.459134 88 3528ft 105kts
30-Dec-17 22:57 34.200050 -118.422627 94 2614ft 111kts
30-Dec-17 22:58 34.198008 -118.385467 90 1086ft 108kts
30-Dec-17 22:59 34.198379 -118.360378 352 717ft 17kts
30-Dec-17 23:00 34.198699 -118.360422 347 718ft 6kts
30-Dec-17 23:01 34.199010 -118.363946 270 724ft 8kts
30-Dec-17 23:02 34.200265 -118.364437 178 727ft 0kts
30-Dec-17 23:03 34.200265 -118.364437 178 727ft 0kts
30-Dec-17 23:04 34.200265 -118.364437 178 727ft 0kts
30-Dec-17 23:05 34.200265 -118.364437 178 727ft 0kts
30-Dec-17 23:06 34.200265 -118.364437 178 727ft 0kts
30-Dec-17 23:07 34.200265 -118.364437 178 727ft 0kts
30-Dec-17 23:08 34.200265 -118.364437 178 727ft 0kts
30-Dec-17 23:09 34.200265 -118.364437 178 727ft 0kts
30-Dec-17 23:10 34.200265 -118.364437 178 727ft 0kts
30-Dec-17 23:11 34.200265 -118.364437 178 727ft 0kts
30-Dec-17 23:12 34.200265 -118.364437 178 727ft 0kts
30-Dec-17 23:13 34.200265 -118.364437 178 727ft 0kts

Navigation Log

Ident Type
1. KSBA Airport
2. KWANG Fix
3. CMA Navaid
4. TOAKS Fix
5. KBUR Airport